createdAt,value
2022-08-27T00:00:01.709Z,18.49
2022-08-27T00:05:01.254Z,18.43
2022-08-27T00:10:01.237Z,18.48
2022-08-27T00:15:01.539Z,18.43
2022-08-27T00:20:01.417Z,18.46
2022-08-27T00:25:01.983Z,18.27
2022-08-27T00:30:01.997Z,18.17
2022-08-27T00:35:01.396Z,18.28
2022-08-27T00:40:01.726Z,18.26
2022-08-27T00:45:01.649Z,18.3
2022-08-27T00:50:01.563Z,18.23
2022-08-27T00:55:01.893Z,18.18
2022-08-27T01:00:01.510Z,17.95
2022-08-27T01:05:02.135Z,18.09
2022-08-27T01:10:01.702Z,18.09
2022-08-27T01:15:01.913Z,18.09
2022-08-27T01:20:01.657Z,17.87
2022-08-27T01:25:01.570Z,17.96
2022-08-27T01:30:01.537Z,17.92
2022-08-27T01:35:01.756Z,17.88
2022-08-27T01:40:01.620Z,17.9
2022-08-27T01:45:01.374Z,17.78
2022-08-27T01:50:01.806Z,17.77
2022-08-27T01:55:01.705Z,17.79
2022-08-27T02:00:01.718Z,17.69
2022-08-27T02:05:01.524Z,17.66
2022-08-27T02:10:01.351Z,17.66
2022-08-27T02:15:01.748Z,17.78
2022-08-27T02:20:01.422Z,17.76
2022-08-27T02:25:01.908Z,17.76
2022-08-27T02:30:01.850Z,17.75
2022-08-27T02:35:01.310Z,17.8
2022-08-27T02:40:01.649Z,17.75
2022-08-27T02:45:01.603Z,17.76
2022-08-27T02:50:02.037Z,17.7
2022-08-27T02:55:01.535Z,17.66
2022-08-27T03:00:02.045Z,17.59
2022-08-27T03:05:01.317Z,17.58
2022-08-27T03:10:01.579Z,17.61
2022-08-27T03:15:01.392Z,17.61
2022-08-27T03:20:01.726Z,17.55
2022-08-27T03:25:02.084Z,17.59
2022-08-27T03:30:03.969Z,17.55
2022-08-27T03:35:01.866Z,17.5
2022-08-27T03:40:01.647Z,17.52
2022-08-27T03:45:01.957Z,17.52
2022-08-27T03:50:01.655Z,17.51
2022-08-27T03:55:01.466Z,17.41
2022-08-27T04:00:01.764Z,17.35
2022-08-27T04:05:01.491Z,17.37
2022-08-27T04:10:01.599Z,17.36
2022-08-27T04:15:02.106Z,17.34
2022-08-27T04:20:18.755Z,17.31
2022-08-27T04:25:01.719Z,17.29
2022-08-27T04:30:01.583Z,17.28
2022-08-27T04:35:01.161Z,17.33
2022-08-27T04:40:01.917Z,17.2
2022-08-27T04:45:01.530Z,17.13
2022-08-27T04:50:03.199Z,17.09
2022-08-27T04:55:01.388Z,17.09
2022-08-27T05:00:02.086Z,17.07
2022-08-27T05:05:01.739Z,17.06
2022-08-27T05:10:01.811Z,17.03
2022-08-27T05:15:01.221Z,17
2022-08-27T05:20:01.900Z,16.92
2022-08-27T05:25:01.555Z,17.05
2022-08-27T05:30:01.594Z,17.04
2022-08-27T05:35:01.329Z,17.04
2022-08-27T05:40:02.199Z,17.04
2022-08-27T05:45:01.163Z,16.91
2022-08-27T05:50:01.245Z,16.94
2022-08-27T05:55:01.560Z,16.91
2022-08-27T06:00:01.482Z,16.76
2022-08-27T06:05:02.119Z,16.63
2022-08-27T06:10:01.743Z,16.74
2022-08-27T06:15:01.757Z,16.79
2022-08-27T06:20:01.360Z,16.77
2022-08-27T06:25:01.268Z,16.8
2022-08-27T06:30:01.601Z,16.82
2022-08-27T06:35:01.695Z,16.79
2022-08-27T06:40:01.471Z,16.84
2022-08-27T06:45:02.124Z,16.78
2022-08-27T06:50:02.115Z,16.8
2022-08-27T06:55:01.636Z,16.89
2022-08-27T07:00:01.575Z,16.85
2022-08-27T07:05:02.228Z,16.89
2022-08-27T07:10:01.760Z,17.09
2022-08-27T07:15:01.503Z,16.98
2022-08-27T07:20:02.007Z,16.92
2022-08-27T07:25:01.767Z,16.78
2022-08-27T07:30:02.130Z,16.67
2022-08-27T07:35:01.632Z,16.79
2022-08-27T07:40:01.544Z,16.62
2022-08-27T07:45:01.791Z,16.66
2022-08-27T07:50:01.626Z,16.75
2022-08-27T07:55:01.229Z,16.84
2022-08-27T08:00:01.483Z,16.77
2022-08-27T08:05:01.894Z,16.78
2022-08-27T08:10:01.309Z,16.79
2022-08-27T08:15:02.051Z,16.96
2022-08-27T08:20:19.908Z,16.92
2022-08-27T08:25:01.502Z,16.95
2022-08-27T08:30:01.314Z,17.01
2022-08-27T08:35:02.001Z,16.96
2022-08-27T08:40:01.286Z,16.95
2022-08-27T08:45:02.118Z,17.01
2022-08-27T08:50:01.285Z,17.02
2022-08-27T08:55:01.416Z,16.93
2022-08-27T09:00:01.637Z,16.8
2022-08-27T09:05:01.710Z,16.85
2022-08-27T09:10:01.676Z,17.05
2022-08-27T09:15:01.591Z,17.09
2022-08-27T09:20:02.039Z,16.98
2022-08-27T09:25:01.872Z,17.01
2022-08-27T09:30:02.114Z,16.93
2022-08-27T09:35:01.558Z,17.04
2022-08-27T09:40:02.169Z,17.04
2022-08-27T09:45:01.626Z,17.18
2022-08-27T09:50:01.530Z,17.25
2022-08-27T09:55:01.797Z,17.31
2022-08-27T10:00:01.815Z,17.04
2022-08-27T10:05:01.464Z,17.06
2022-08-27T10:10:01.951Z,17.25
2022-08-27T10:15:01.257Z,17.04
2022-08-27T10:20:01.404Z,17.17
2022-08-27T10:25:01.951Z,17.18
2022-08-27T10:30:01.281Z,17.26
2022-08-27T10:35:01.206Z,17.28
2022-08-27T10:40:02.217Z,17.24
2022-08-27T10:45:01.293Z,17.09
2022-08-27T10:50:01.814Z,17.03
2022-08-27T10:55:01.680Z,17.13
2022-08-27T11:00:01.479Z,17.24
2022-08-27T11:05:01.465Z,17.22
2022-08-27T11:10:01.441Z,17.22
2022-08-27T11:15:01.890Z,17.22
2022-08-27T11:20:02.114Z,17.49
2022-08-27T11:25:01.720Z,17.26
2022-08-27T11:30:02.083Z,17.46
2022-08-27T11:35:01.348Z,17.44
2022-08-27T11:40:02.177Z,17.48
2022-08-27T11:45:01.872Z,17.59
2022-08-27T11:50:01.809Z,17.62
2022-08-27T11:55:01.826Z,17.74
2022-08-27T12:00:01.818Z,17.84
2022-08-27T12:05:01.746Z,17.9
2022-08-27T12:10:01.433Z,18
2022-08-27T12:15:02.198Z,18
2022-08-27T12:20:01.383Z,17.89
2022-08-27T12:25:01.328Z,18.09
2022-08-27T12:30:01.926Z,18.35
2022-08-27T12:35:01.679Z,18.51
2022-08-27T12:40:01.409Z,18.72
2022-08-27T12:45:01.606Z,18.79
2022-08-27T12:50:01.976Z,19.05
2022-08-27T12:55:01.326Z,19.14
2022-08-27T13:00:02.086Z,19.05
2022-08-27T13:05:01.810Z,18.98
2022-08-27T13:10:01.237Z,18.97
2022-08-27T13:15:01.858Z,18.98
2022-08-27T13:20:01.678Z,19.05
2022-08-27T13:25:01.346Z,18.78
2022-08-27T13:30:01.353Z,18.69
2022-08-27T13:35:02.034Z,18.68
2022-08-27T13:40:01.256Z,18.72
2022-08-27T13:45:01.328Z,18.57
2022-08-27T13:50:01.959Z,18.56
2022-08-27T13:55:01.365Z,18.56
2022-08-27T14:00:01.912Z,18.67
2022-08-27T14:05:01.845Z,18.77
2022-08-27T14:10:01.450Z,18.77
2022-08-27T14:15:01.500Z,18.92
2022-08-27T14:20:02.068Z,19.05
2022-08-27T14:25:01.558Z,19.09
2022-08-27T14:30:01.241Z,19.17
2022-08-27T14:35:02.008Z,19.16
2022-08-27T14:40:01.851Z,19.26
2022-08-27T14:45:01.371Z,19.33
2022-08-27T14:50:01.723Z,19.44
2022-08-27T14:55:01.504Z,19.53
2022-08-27T15:00:01.961Z,19.6
2022-08-27T15:05:11.872Z,19.66
2022-08-27T15:10:01.832Z,19.5
2022-08-27T15:15:01.311Z,19.46
2022-08-27T15:20:01.580Z,19.53
2022-08-27T15:25:02.054Z,19.52
2022-08-27T15:30:01.369Z,19.55
2022-08-27T15:35:01.712Z,19.55
2022-08-27T15:40:01.909Z,19.56
2022-08-27T15:45:01.425Z,19.45
2022-08-27T15:50:02.064Z,19.33
2022-08-27T15:55:02.007Z,19.08
2022-08-27T16:00:01.590Z,19.15
2022-08-27T16:05:01.615Z,19.2
2022-08-27T16:10:01.996Z,19.14
2022-08-27T16:15:01.727Z,19.2
2022-08-27T16:20:01.773Z,19.25
2022-08-27T16:25:02.122Z,19.29
2022-08-27T16:30:01.307Z,19.27
2022-08-27T16:35:02.046Z,19.28
2022-08-27T16:40:01.282Z,19.23
2022-08-27T16:45:01.785Z,19.21
2022-08-27T16:50:02.123Z,19.17
2022-08-27T16:55:01.843Z,19.18
2022-08-27T17:00:01.511Z,19.14
2022-08-27T17:05:17.915Z,19.09
2022-08-27T17:10:05.777Z,19.05
2022-08-27T17:15:02.093Z,18.99
2022-08-27T17:20:02.046Z,18.96
2022-08-27T17:25:01.692Z,18.95
2022-08-27T17:30:01.661Z,18.92
2022-08-27T17:35:05.927Z,18.92
2022-08-27T17:40:01.876Z,18.89
2022-08-27T17:45:01.947Z,18.84
2022-08-27T17:50:01.603Z,18.83
2022-08-27T17:55:02.095Z,18.76
2022-08-27T18:00:04.831Z,18.73
2022-08-27T18:05:01.606Z,18.69
2022-08-27T18:10:01.706Z,18.7
2022-08-27T18:15:01.334Z,18.66
2022-08-27T18:20:01.739Z,18.63
2022-08-27T18:25:01.440Z,18.59
2022-08-27T18:30:01.439Z,18.56
2022-08-27T18:35:01.728Z,18.52
2022-08-27T18:40:01.831Z,18.48
2022-08-27T18:45:05.604Z,18.44
2022-08-27T18:50:01.446Z,18.39
2022-08-27T18:55:01.590Z,18.36
2022-08-27T19:00:01.865Z,18.3
2022-08-27T19:05:01.356Z,18.3
2022-08-27T19:10:01.403Z,18.23
2022-08-27T19:15:01.881Z,18.22
2022-08-27T19:20:01.750Z,18.18
2022-08-27T19:25:01.675Z,18.15
2022-08-27T19:30:01.369Z,18.12
2022-08-27T19:35:01.432Z,18.08
2022-08-27T19:40:01.744Z,18.05
2022-08-27T19:45:01.508Z,17.99
2022-08-27T19:50:01.505Z,17.96
2022-08-27T19:55:13.701Z,17.95
2022-08-27T20:00:01.405Z,17.91
2022-08-27T20:05:17.602Z,17.9
2022-08-27T20:10:01.809Z,17.88
2022-08-27T20:15:01.528Z,17.85
2022-08-27T20:20:01.964Z,17.85
2022-08-27T20:25:01.613Z,17.84
2022-08-27T20:30:01.643Z,17.83
2022-08-27T20:35:01.624Z,17.88
2022-08-27T20:40:01.855Z,17.85
2022-08-27T20:45:02.788Z,17.88
2022-08-27T20:50:03.285Z,17.82
2022-08-27T20:55:01.920Z,17.82
2022-08-27T21:00:01.186Z,17.8
2022-08-27T21:05:01.289Z,17.75
2022-08-27T21:10:01.685Z,17.72
2022-08-27T21:15:01.325Z,17.67
2022-08-27T21:20:01.169Z,17.68
2022-08-27T21:25:01.955Z,17.68
2022-08-27T21:30:01.660Z,17.64
2022-08-27T21:35:01.552Z,17.64
2022-08-27T21:40:01.718Z,17.59
2022-08-27T21:45:02.081Z,17.56
2022-08-27T21:50:02.078Z,17.58
2022-08-27T21:55:01.207Z,17.53
2022-08-27T22:00:01.848Z,17.52
2022-08-27T22:05:02.095Z,17.51
2022-08-27T22:10:01.492Z,17.5
2022-08-27T22:15:01.502Z,17.51
2022-08-27T22:20:01.495Z,17.43
2022-08-27T22:25:01.688Z,17.4
2022-08-27T22:30:01.937Z,17.38
2022-08-27T22:35:01.532Z,17.4
2022-08-27T22:40:01.316Z,17.36
2022-08-27T22:45:02.009Z,17.35
2022-08-27T22:50:01.989Z,17.38
2022-08-27T22:55:01.258Z,17.38
2022-08-27T23:00:01.179Z,17.41
2022-08-27T23:05:06.275Z,17.45
2022-08-27T23:10:01.920Z,17.5
2022-08-27T23:15:01.317Z,17.51
2022-08-27T23:20:01.581Z,17.5
2022-08-27T23:25:01.463Z,17.46
2022-08-27T23:30:02.073Z,17.45
2022-08-27T23:35:01.267Z,17.34
2022-08-27T23:40:01.729Z,17.34
2022-08-27T23:45:01.717Z,17.3
2022-08-27T23:50:01.718Z,17.33
2022-08-27T23:55:01.525Z,17.34
